Time;durP1;ratioP1;P1;durP2;ratioP2;P2;SDS_P1;SDS_P2;PMS_P1;PMS_P2;Temp;Humidity;BMP_temperature;BMP_pressure;BME280_temperature;BME280_humidity;BME280_pressure;Samples;Min_cycle;Max_cycle;Signal;HPM_P1;HPM_P2
2021/10/12 00:00:37;;;;;;;;;;;;;;;-144.99;100.00;52370.63;5052417;28;19977;-62
2021/10/12 00:03:05;;;;;;;;;;;;;;;-144.99;100.00;52403.25;5050778;28;19996;-63
2021/10/12 00:05:31;;;;;;;;;;;;;;;-144.99;100.00;52415.47;5051684;28;21092;-62
2021/10/12 00:07:58;;;;;;;;;;;;;;;-144.99;100.00;52399.19;5051725;28;19985;-65
2021/10/12 00:10:24;;;;;;;;;;;;;;;-144.99;100.00;52415.47;5051109;28;19981;-62
2021/10/12 00:12:50;;;;;;;;;;;;;;;-144.99;100.00;52374.72;5050134;28;20004;-64
2021/10/12 00:15:17;;;;;;;;;;;;;;;-144.99;100.00;52374.72;5051999;28;19981;-65
2021/10/12 00:17:43;;;;;;;;;;;;;;;-144.99;100.00;52378.78;5041085;28;19960;-63
2021/10/12 00:20:11;;;;;;;;;;;;;;;-144.99;100.00;52376.75;5032027;28;19992;-64
2021/10/12 00:22:38;;;;;;;;;;;;;;;-144.99;100.00;52338.03;5042230;28;19989;-64
2021/10/12 00:25:05;;;;;;;;;;;;;;;-144.99;100.00;52395.09;5050543;28;19973;-64
2021/10/12 00:27:31;;;;;;;;;;;;;;;-144.99;100.00;52397.13;5050630;28;19985;-64
2021/10/12 00:29:57;;;;;;;;;;;;;;;-144.99;100.00;52352.28;5046337;28;19981;-64
2021/10/12 00:32:24;;;;;;;;;;;;;;;-144.99;100.00;52407.31;5043613;28;19989;-66
2021/10/12 00:34:50;;;;;;;;;;;;;;;-144.99;100.00;52419.56;5051004;28;20388;-65
2021/10/12 00:37:18;;;;;;;;;;;;;;;-144.99;100.00;52391.03;5050825;28;20009;-65
2021/10/12 00:39:44;;;;;;;;;;;;;;;-144.99;100.00;52407.31;5050081;28;19989;-66
2021/10/12 00:42:11;;;;;;;;;;;;;;;-144.99;100.00;52354.34;5050235;28;20011;-65
2021/10/12 00:44:37;;;;;;;;;;;;;;;-144.99;100.00;52348.22;5050103;28;19974;-63
2021/10/12 00:47:03;;;;;;;;;;;;;;;-144.99;100.00;52362.50;5038946;28;20187;-64
2021/10/12 00:49:30;;;;;;;;;;;;;;;-144.99;100.00;52346.19;5044666;28;19997;-66
2021/10/12 00:51:56;;;;;;;;;;;;;;;-144.99;100.00;52407.31;5047071;28;20005;-65
2021/10/12 00:54:24;;;;;;;;;;;;;;;-144.99;100.00;52364.53;5045141;28;19988;-65
2021/10/12 00:56:50;;;;;;;;;;;;;;;-144.99;100.00;52342.09;5044320;28;19977;-66
2021/10/12 00:59:17;;;;;;;;;;;;;;;-144.99;100.00;52395.09;5050590;28;20384;-63
2021/10/12 01:01:43;;;;;;;;;;;;;;;-144.99;100.00;52378.78;5047463;28;19989;-63
2021/10/12 01:04:10;;;;;;;;;;;;;;;-144.99;100.00;52374.72;5050551;28;19996;-64
2021/10/12 01:06:36;;;;;;;;;;;;;;;-144.99;100.00;52382.88;5049937;28;20290;-64
2021/10/12 01:09:04;;;;;;;;;;;;;;;-144.99;100.00;52384.91;5050958;28;20008;-64
2021/10/12 01:11:33;;;;;;;;;;;;;;;-144.99;100.00;52374.72;5049282;28;20463;-63
2021/10/12 01:14:01;;;;;;;;;;;;;;;-144.99;100.00;52374.72;5050293;28;19992;-63
2021/10/12 01:16:27;;;;;;;;;;;;;;;-144.99;100.00;52338.03;5050460;28;19988;-65
2021/10/12 01:18:57;;;;;;;;;;;;;;;-144.99;100.00;52378.78;5050692;28;19985;-64
2021/10/12 01:21:24;;;;;;;;;;;;;;;-144.99;100.00;52378.78;5044305;28;19996;-64
2021/10/12 01:23:51;;;;;;;;;;;;;;;-144.99;100.00;52362.50;5049432;28;19978;-66
2021/10/12 01:26:17;;;;;;;;;;;;;;;-144.99;100.00;52364.53;5049913;28;19981;-65
2021/10/12 01:28:43;;;;;;;;;;;;;;;-144.99;100.00;52407.31;5049682;28;20013;-66
2021/10/12 01:31:10;;;;;;;;;;;;;;;-144.99;100.00;52386.94;5046381;28;19973;-65
2021/10/12 01:33:36;;;;;;;;;;;;;;;-144.99;100.00;52374.72;5049657;28;20465;-66
2021/10/12 01:36:03;;;;;;;;;;;;;;;-144.99;100.00;52382.88;5045123;28;20361;-65
2021/10/12 01:38:33;;;;;;;;;;;;;;;-144.99;100.00;52374.72;5030038;28;19990;-67
2021/10/12 01:40:59;;;;;;;;;;;;;;;-144.99;100.00;52391.03;5037111;28;20430;-64
2021/10/12 01:43:25;;;;;;;;;;;;;;;-144.99;100.00;52366.56;5049175;28;19973;-69
2021/10/12 01:45:58;;;;;;;;;;;;;;;-144.99;100.00;52374.72;5049714;28;20469;-66
2021/10/12 01:48:24;;;;;;;;;;;;;;;-144.99;100.00;52391.03;5049795;28;20349;-66
2021/10/12 01:50:51;;;;;;;;;;;;;;;-144.99;100.00;52411.41;5044706;28;20072;-65
2021/10/12 01:53:17;;;;;;;;;;;;;;;-144.99;100.00;52386.94;5046732;28;20000;-65
2021/10/12 01:55:45;;;;;;;;;;;;;;;-144.99;100.00;52403.25;5049957;28;19984;-65
2021/10/12 01:58:11;;;;;;;;;;;;;;;-144.99;100.00;52395.09;5048971;28;20409;-65
2021/10/12 02:00:38;;;;;;;;;;;;;;;-144.99;100.00;52382.88;5043864;28;20438;-66
2021/10/12 02:03:04;;;;;;;;;;;;;;;-144.99;100.00;52376.75;5048215;28;19993;-66
2021/10/12 02:05:31;;;;;;;;;;;;;;;-144.99;100.00;52378.78;5049381;28;19938;-65
2021/10/12 02:07:57;;;;;;;;;;;;;;;-144.99;100.00;52391.03;5049160;28;19981;-61
2021/10/12 02:10:23;;;;;;;;;;;;;;;-144.99;100.00;52366.56;5049792;28;19959;-61
2021/10/12 02:12:51;;;;;;;;;;;;;;;-144.99;100.00;52393.06;5049141;28;20021;-63
2021/10/12 02:15:18;;;;;;;;;;;;;;;-144.99;100.00;52403.25;5045479;28;19978;-61
2021/10/12 02:17:44;;;;;;;;;;;;;;;-144.99;100.00;52350.25;5049095;28;19977;-62
2021/10/12 02:20:10;;;;;;;;;;;;;;;-144.99;100.00;52395.09;5049683;28;19988;-64
2021/10/12 02:22:37;;;;;;;;;;;;;;;-144.99;100.00;52366.56;5042919;28;20474;-62
2021/10/12 02:25:04;;;;;;;;;;;;;;;-144.99;100.00;52380.84;5047645;28;19981;-63
2021/10/12 02:27:30;;;;;;;;;;;;;;;-144.99;100.00;52419.56;5049004;28;19974;-64
2021/10/12 02:29:58;;;;;;;;;;;;;;;-144.99;100.00;52374.72;5049449;28;20001;-67
2021/10/12 02:32:24;;;;;;;;;;;;;;;-144.99;100.00;52388.97;5075670;22;20357;-61
2021/10/12 02:34:51;;;;;;;;;;;;;;;-144.99;100.00;52395.09;5041821;28;19997;-61
2021/10/12 02:37:18;;;;;;;;;;;;;;;-144.99;100.00;52435.88;5035023;28;19978;-62
2021/10/12 02:39:44;;;;;;;;;;;;;;;-144.99;100.00;52439.94;5032982;28;19977;-62
2021/10/12 02:42:10;;;;;;;;;;;;;;;-144.99;100.00;52386.94;5037138;28;19996;-60
2021/10/12 02:44:37;;;;;;;;;;;;;;;-144.99;100.00;52380.84;5051130;28;19977;-60
2021/10/12 02:47:05;;;;;;;;;;;;;;;-144.99;100.00;52378.78;5048863;28;19977;-59
2021/10/12 02:49:31;;;;;;;;;;;;;;;-144.99;100.00;52386.94;5047274;28;20008;-59
2021/10/12 02:51:57;;;;;;;;;;;;;;;-144.99;100.00;52358.41;5044856;28;19997;-60
2021/10/12 02:54:24;;;;;;;;;;;;;;;-144.99;100.00;52399.19;5028211;28;19982;-60
2021/10/12 02:56:50;;;;;;;;;;;;;;;-144.99;100.00;52419.56;5028326;28;19981;-62
2021/10/12 02:59:16;;;;;;;;;;;;;;;-144.99;100.00;52399.19;5034536;28;19973;-59
2021/10/12 03:01:43;;;;;;;;;;;;;;;-144.99;100.00;52378.78;5042135;28;19993;-59
2021/10/12 03:04:10;;;;;;;;;;;;;;;-144.99;100.00;52407.31;5039709;28;19984;-60
2021/10/12 03:06:37;;;;;;;;;;;;;;;-144.99;100.00;52370.63;5032219;28;20068;-60
2021/10/12 03:09:03;;;;;;;;;;;;;;;-144.99;100.00;52403.25;5037894;28;20353;-60
2021/10/12 03:11:29;;;;;;;;;;;;;;;-144.99;100.00;52380.84;5037141;28;20234;-60
2021/10/12 03:13:56;;;;;;;;;;;;;;;-144.99;100.00;52350.25;5028588;28;20005;-60
2021/10/12 03:16:22;;;;;;;;;;;;;;;-144.99;100.00;52423.63;5028553;28;20124;-60
2021/10/12 03:18:48;;;;;;;;;;;;;;;-144.99;100.00;52399.19;5036839;28;19984;-59
2021/10/12 03:21:18;;;;;;;;;;;;;;;-144.99;100.00;52403.25;5042205;28;19973;-60
2021/10/12 03:23:44;;;;;;;;;;;;;;;-144.99;100.00;52446.06;5042277;28;20076;-60
2021/10/12 03:26:10;;;;;;;;;;;;;;;-144.99;100.00;52329.88;5047754;28;19981;-60
2021/10/12 03:28:37;;;;;;;;;;;;;;;-144.99;100.00;52407.31;5048430;28;19973;-59
2021/10/12 03:31:03;;;;;;;;;;;;;;;-144.99;100.00;52366.56;5043048;28;19980;-59
2021/10/12 03:33:29;;;;;;;;;;;;;;;-144.99;100.00;52399.19;5051690;28;19982;-62
2021/10/12 03:35:57;;;;;;;;;;;;;;;-144.99;100.00;52374.72;5051147;28;20203;-59
2021/10/12 03:38:25;;;;;;;;;;;;;;;-144.99;100.00;52415.47;5051292;28;19973;-59
2021/10/12 03:40:52;;;;;;;;;;;;;;;-144.99;100.00;52374.72;5049117;28;20444;-60
2021/10/12 03:43:18;;;;;;;;;;;;;;;-144.99;100.00;52391.03;5034182;28;20005;-60
2021/10/12 03:45:44;;;;;;;;;;;;;;;-144.99;100.00;52388.97;5051941;28;19985;-60
2021/10/12 03:48:11;;;;;;;;;;;;;;;-144.99;100.00;52370.63;5051401;28;20041;-60
2021/10/12 03:50:37;;;;;;;;;;;;;;;-144.99;100.00;52417.53;5043762;28;19975;-60
2021/10/12 03:53:03;;;;;;;;;;;;;;;-144.99;100.00;52411.41;5051861;28;20055;-59
2021/10/12 03:55:31;;;;;;;;;;;;;;;-144.99;100.00;52358.41;5036808;28;19977;-60
2021/10/12 03:57:57;;;;;;;;;;;;;;;-144.99;100.00;52399.19;5036753;28;19988;-60
2021/10/12 04:00:24;;;;;;;;;;;;;;;-144.99;100.00;52415.47;5047209;28;19984;-60
2021/10/12 04:02:50;;;;;;;;;;;;;;;-144.99;100.00;52391.03;5047208;28;19997;-59
2021/10/12 04:05:16;;;;;;;;;;;;;;;-144.99;100.00;52399.19;5052721;28;19980;-60
2021/10/12 04:07:43;;;;;;;;;;;;;;;-144.99;100.00;52403.25;5035312;28;20330;-61
2021/10/12 04:10:10;;;;;;;;;;;;;;;-144.99;100.00;52391.03;5031744;28;20394;-57
2021/10/12 04:12:37;;;;;;;;;;;;;;;-144.99;100.00;52364.53;5049701;28;19989;-57
2021/10/12 04:15:04;;;;;;;;;;;;;;;-144.99;100.00;52423.63;5039391;28;19997;-57
2021/10/12 04:17:30;;;;;;;;;;;;;;;-144.99;100.00;52419.56;5031115;28;19992;-63
2021/10/12 04:19:57;;;;;;;;;;;;;;;-144.99;100.00;52382.88;5033328;28;20036;-65
2021/10/12 04:22:23;;;;;;;;;;;;;;;-144.99;100.00;52378.78;5050848;28;20386;-65
2021/10/12 04:24:50;;;;;;;;;;;;;;;-144.99;100.00;52415.47;5050248;28;19984;-66
2021/10/12 04:27:16;;;;;;;;;;;;;;;-144.99;100.00;52415.47;5049700;28;19977;-65
2021/10/12 04:29:44;;;;;;;;;;;;;;;-144.99;100.00;52409.38;5050454;28;20005;-65
2021/10/12 04:32:11;;;;;;;;;;;;;;;-144.99;100.00;52409.38;5049795;28;20486;-65
2021/10/12 04:34:37;;;;;;;;;;;;;;;-144.99;100.00;52378.78;5047340;28;19981;-65
2021/10/12 04:37:04;;;;;;;;;;;;;;;-144.99;100.00;52391.03;5030477;28;20090;-65
2021/10/12 04:39:30;;;;;;;;;;;;;;;-144.99;100.00;52354.34;5030088;28;19996;-64
2021/10/12 04:41:58;;;;;;;;;;;;;;;-144.99;100.00;52403.25;5029250;28;19998;-65
2021/10/12 04:44:24;;;;;;;;;;;;;;;-144.99;100.00;52409.38;5041521;28;20009;-64
2021/10/12 04:46:52;;;;;;;;;;;;;;;-144.99;100.00;52413.44;5041491;28;19977;-64
2021/10/12 04:49:19;;;;;;;;;;;;;;;-144.99;100.00;52399.19;5050232;28;20009;-65
2021/10/12 04:51:45;;;;;;;;;;;;;;;-144.99;100.00;52391.03;5050115;28;20001;-65
2021/10/12 04:54:11;;;;;;;;;;;;;;;-144.99;100.00;52366.56;5050415;28;20385;-64
2021/10/12 04:56:38;;;;;;;;;;;;;;;-144.99;100.00;52368.59;5049712;28;20404;-65
2021/10/12 04:59:04;;;;;;;;;;;;;;;-144.99;100.00;52370.63;5050259;28;19985;-65
2021/10/12 05:01:31;;;;;;;;;;;;;;;-144.99;100.00;52397.13;5049809;28;20000;-64
2021/10/12 05:03:59;;;;;;;;;;;;;;;-144.99;100.00;52401.22;5042384;28;19982;-64
2021/10/12 05:06:25;;;;;;;;;;;;;;;-144.99;100.00;52395.09;5034275;28;20482;-65
2021/10/12 05:08:51;;;;;;;;;;;;;;;-144.99;100.00;52384.91;5030503;28;20168;-65
2021/10/12 05:11:18;;;;;;;;;;;;;;;-144.99;100.00;52393.06;5039737;28;19989;-66
2021/10/12 05:13:44;;;;;;;;;;;;;;;-144.99;100.00;52403.25;5049655;28;19960;-67
2021/10/12 05:16:12;;;;;;;;;;;;;;;-144.99;100.00;52393.06;5049840;28;20065;-65
2021/10/12 05:18:41;;;;;;;;;;;;;;;-144.99;100.00;52399.19;3993945;28;10000911;-65
2021/10/12 05:21:09;;;;;;;;;;;;;;;-144.99;100.00;52403.25;5046408;28;19981;-64
2021/10/12 05:23:35;;;;;;;;;;;;;;;-144.99;100.00;52386.94;5033144;28;19988;-66
2021/10/12 05:26:01;;;;;;;;;;;;;;;-144.99;100.00;52401.22;5044569;28;19996;-65
2021/10/12 05:28:28;;;;;;;;;;;;;;;-144.99;100.00;52386.94;5046390;28;19984;-65
2021/10/12 05:30:54;;;;;;;;;;;;;;;-144.99;100.00;52415.47;5047211;28;20001;-65
2021/10/12 05:33:21;;;;;;;;;;;;;;;-144.99;100.00;52391.03;5046682;28;19997;-66
2021/10/12 05:35:49;;;;;;;;;;;;;;;-144.99;100.00;52391.03;5046147;28;19985;-67
2021/10/12 05:38:18;;;;;;;;;;;;;;;-144.99;100.00;52378.78;5046619;28;19981;-66
2021/10/12 05:40:44;;;;;;;;;;;;;;;-144.99;100.00;52393.06;5046940;28;19992;-65
2021/10/12 05:43:10;;;;;;;;;;;;;;;-144.99;100.00;52395.09;5045861;28;20000;-65
2021/10/12 05:45:37;;;;;;;;;;;;;;;-144.99;100.00;52352.28;5046440;28;20008;-65
2021/10/12 05:48:07;;;;;;;;;;;;;;;-144.99;100.00;52388.97;5045935;28;19992;-65
2021/10/12 05:50:35;;;;;;;;;;;;;;;-144.99;100.00;52382.88;5042397;28;20091;-64
2021/10/12 05:53:08;;;;;;;;;;;;;;;-144.99;100.00;52370.63;5032528;28;19993;-65
2021/10/12 05:55:47;;;;;;;;;;;;;;;-144.99;100.00;52368.59;5029956;28;20333;-64
2021/10/12 05:58:24;;;;;;;;;;;;;;;-144.99;100.00;52419.56;5025883;28;20412;-65
2021/10/12 06:00:51;;;;;;;;;;;;;;;-144.99;100.00;52374.72;5038949;28;20067;-65
2021/10/12 06:03:17;;;;;;;;;;;;;;;-144.99;100.00;52336.00;5037654;28;20000;-65
2021/10/12 06:05:43;;;;;;;;;;;;;;;-144.99;100.00;52354.34;5046383;28;19996;-65
2021/10/12 06:08:10;;;;;;;;;;;;;;;-144.99;100.00;52403.25;5046029;28;20007;-64
2021/10/12 06:10:38;;;;;;;;;;;;;;;-144.99;100.00;52358.41;5041714;28;20010;-64
2021/10/12 06:13:09;;;;;;;;;;;;;;;-144.99;100.00;52409.38;5025325;28;20080;-66
2021/10/12 06:15:35;;;;;;;;;;;;;;;-144.99;100.00;52370.63;5026218;28;20029;-64
2021/10/12 06:18:02;;;;;;;;;;;;;;;-144.99;100.00;52342.09;5030088;28;19978;-65
2021/10/12 06:20:28;;;;;;;;;;;;;;;-144.99;100.00;52362.50;5046588;28;19973;-65
2021/10/12 06:22:55;;;;;;;;;;;;;;;-144.99;100.00;52362.50;5045523;28;20072;-66
2021/10/12 06:25:21;;;;;;;;;;;;;;;-144.99;100.00;52342.09;5035533;28;19978;-65
2021/10/12 06:27:49;;;;;;;;;;;;;;;-144.99;100.00;52362.50;5033317;28;20008;-65
2021/10/12 06:30:15;;;;;;;;;;;;;;;-144.99;100.00;52350.25;5025569;28;20008;-65
2021/10/12 06:32:41;;;;;;;;;;;;;;;-144.99;100.00;52346.19;5025579;28;20005;-65
2021/10/12 06:35:08;;;;;;;;;;;;;;;-144.99;100.00;52366.56;5032696;28;19977;-65
2021/10/12 06:37:35;;;;;;;;;;;;;;;-144.99;100.00;52407.31;5045785;28;19988;-65
2021/10/12 06:40:01;;;;;;;;;;;;;;;-144.99;100.00;52378.78;5045896;28;19965;-66
2021/10/12 06:42:27;;;;;;;;;;;;;;;-144.99;100.00;52338.03;5045463;28;20096;-65
2021/10/12 06:44:55;;;;;;;;;;;;;;;-144.99;100.00;52333.94;5045318;28;20267;-68
2021/10/12 06:47:22;;;;;;;;;;;;;;;-144.99;100.00;52350.25;5046017;28;19988;-65
2021/10/12 06:49:48;;;;;;;;;;;;;;;-144.99;100.00;52388.97;5045291;28;20000;-65
2021/10/12 06:52:14;;;;;;;;;;;;;;;-144.99;100.00;52374.72;5045584;28;20001;-65
2021/10/12 06:54:41;;;;;;;;;;;;;;;-144.99;100.00;52362.50;5045415;28;20249;-68
2021/10/12 06:57:11;;;;;;;;;;;;;;;-144.99;100.00;52325.81;5045262;28;20007;-66
2021/10/12 06:59:37;;;;;;;;;;;;;;;-144.99;100.00;52354.34;5045359;28;20422;-66
2021/10/12 07:02:05;;;;;;;;;;;;;;;-144.99;100.00;52340.06;5044810;28;20473;-66
2021/10/12 07:04:31;;;;;;;;;;;;;;;-144.99;100.00;52338.03;5038821;28;19984;-66
2021/10/12 07:06:57;;;;;;;;;;;;;;;-144.99;100.00;52333.94;5030064;28;20088;-65
2021/10/12 07:09:24;;;;;;;;;;;;;;;-144.99;100.00;52305.41;5029631;28;19988;-66
2021/10/12 07:11:50;;;;;;;;;;;;;;;-144.99;100.00;52350.25;5043301;28;20005;-66
2021/10/12 07:14:16;;;;;;;;;;;;;;;-144.99;100.00;52358.41;5049064;28;19992;-66
2021/10/12 07:16:43;;;;;;;;;;;;;;;-144.99;100.00;52342.09;5049137;28;19985;-66
2021/10/12 07:19:10;;;;;;;;;;;;;;;-144.99;100.00;52344.16;5048571;28;19985;-66
2021/10/12 07:21:37;;;;;;;;;;;;;;;-144.99;100.00;52305.41;5048669;28;19984;-66
2021/10/12 07:24:03;;;;;;;;;;;;;;;-144.99;100.00;52321.72;5033969;28;19980;-66
2021/10/12 07:26:30;;;;;;;;;;;;;;;-144.99;100.00;52305.41;5048827;28;20069;-66
2021/10/12 07:28:58;;;;;;;;;;;;;;;-144.99;100.00;52338.03;5049054;28;19985;-68
2021/10/12 07:31:25;;;;;;;;;;;;;;;-144.99;98.52;52333.94;5048559;28;20009;-68
2021/10/12 07:33:51;;;;;;;;;;;;;;;-144.99;97.80;52321.72;5048722;28;20012;-66
2021/10/12 07:36:19;;;;;;;;;;;;;;;-144.99;96.36;52325.81;5045011;28;19981;-66
2021/10/12 07:38:45;;;;;;;;;;;;;;;-144.99;92.06;52309.50;5048830;28;19989;-67
2021/10/12 07:41:12;;;;;;;;;;;;;;;-144.99;89.34;52305.41;5048818;28;19988;-68
2021/10/12 07:43:39;;;;;;;;;;;;;;;-144.99;88.40;52272.81;5048952;28;20306;-68
2021/10/12 07:46:06;;;;;;;;;;;;;;;-144.99;86.83;52313.56;5048820;28;20442;-67
2021/10/12 07:48:32;;;;;;;;;;;;;;;-144.99;85.77;52301.34;5048795;28;19985;-67
2021/10/12 07:50:59;;;;;;;;;;;;;;;-144.99;83.36;52280.97;5048392;28;19989;-67
2021/10/12 07:53:28;;;;;;;;;;;;;;;-144.99;82.41;52283.00;5040353;28;19993;-67
2021/10/12 07:55:57;;;;;;;;;;;;;;;-144.99;81.08;52287.06;5029067;28;19981;-68
2021/10/12 07:58:23;;;;;;;;;;;;;;;-144.99;79.42;52313.56;5028953;28;20084;-66
2021/10/12 08:00:50;;;;;;;;;;;;;;;-144.99;78.86;52297.25;5032994;28;19981;-66
2021/10/12 08:03:17;;;;;;;;;;;;;;;-144.99;77.48;52293.19;5043131;28;19993;-66
2021/10/12 08:05:43;;;;;;;;;;;;;;;-144.99;75.95;52301.34;5027980;28;20053;-66
2021/10/12 08:08:09;;;;;;;;;;;;;;;-144.99;75.00;52283.00;5029128;28;19981;-66
2021/10/12 08:10:39;;;;;;;;;;;;;;;-144.99;73.52;52283.00;5033124;28;19990;-67
2021/10/12 08:13:07;;;;;;;;;;;;;;;-144.99;71.78;52329.88;5047753;28;20070;-66
2021/10/12 08:15:33;;;;;;;;;;;;;;;-144.99;71.15;52287.06;5047965;28;19988;-66
2021/10/12 08:18:00;;;;;;;;;;;;;;;-144.99;70.26;52313.56;5039041;28;20017;-66
2021/10/12 08:20:26;;;;;;;;;;;;;;;-144.99;67.43;52293.19;5047860;28;19985;-67
2021/10/12 08:22:54;;;;;;;;;;;;;;;-144.99;65.80;52264.66;5048764;28;19993;-67
2021/10/12 08:25:20;;;;;;;;;;;;;;;-144.99;66.39;52321.72;5037342;28;19977;-67
2021/10/12 08:27:48;;;;;;;;;;;;;;;-144.99;65.49;52297.25;5035651;28;19989;-67
2021/10/12 08:30:14;;;;;;;;;;;;;;;-144.99;65.03;52280.97;5035213;28;19985;-66
2021/10/12 08:32:41;;;;;;;;;;;;;;;-144.99;63.80;52299.31;5046949;28;20024;-66
2021/10/12 08:35:08;;;;;;;;;;;;;;;-144.99;62.74;52313.56;5034742;28;19982;-67
2021/10/12 08:37:34;;;;;;;;;;;;;;;-144.99;62.63;52329.88;5047637;28;20048;-66
2021/10/12 08:40:01;;;;;;;;;;;;;;;-144.99;62.96;52260.56;5048375;28;19981;-66
2021/10/12 08:42:30;;;;;;;;;;;;;;;-144.99;62.60;52305.41;5047410;28;20003;-66
2021/10/12 08:44:59;;;;;;;;;;;;;;;-144.99;62.71;52309.50;5044825;28;20482;-66
2021/10/12 08:47:25;;;;;;;;;;;;;;;-144.99;61.31;52303.38;5042889;28;20000;-66
2021/10/12 08:49:52;;;;;;;;;;;;;;;-144.99;61.09;52289.13;5048522;28;19985;-66
2021/10/12 08:52:20;;;;;;;;;;;;;;;-144.99;60.05;52276.88;5047527;28;20008;-66
2021/10/12 08:54:46;;;;;;;;;;;;;;;-144.99;59.18;52309.50;5047124;28;19957;-66
2021/10/12 08:57:13;;;;;;;;;;;;;;;-144.99;58.44;52254.47;5047530;28;19985;-66
2021/10/12 08:59:39;;;;;;;;;;;;;;;-144.99;57.48;52256.50;5047408;28;19989;-66
2021/10/12 09:02:12;;;;;;;;;;;;;;;-144.99;55.95;52289.13;5046724;28;19993;-66
2021/10/12 09:04:40;;;;;;;;;;;;;;;-144.99;56.58;52276.88;5038724;28;19985;-66
2021/10/12 09:07:15;;;;;;;;;;;;;;;-144.99;55.93;52280.97;5027170;28;20019;-66
2021/10/12 09:09:41;;;;;;;;;;;;;;;-144.99;55.55;52262.63;5027375;28;19992;-66
2021/10/12 09:12:08;;;;;;;;;;;;;;;-144.99;54.10;52313.56;5043479;28;20001;-66
2021/10/12 09:14:50;;;;;;;;;;;;;;;-144.99;53.93;52252.44;5039033;28;19985;-66
2021/10/12 09:17:28;;;;;;;;;;;;;;;-144.99;52.98;52240.19;5026824;28;19986;-66
2021/10/12 09:19:54;;;;;;;;;;;;;;;-144.99;52.25;52248.34;5046758;28;19996;-66
2021/10/12 09:22:20;;;;;;;;;;;;;;;-144.99;52.33;52234.09;5040725;28;20028;-66
2021/10/12 09:24:48;;;;;;;;;;;;;;;-144.99;51.58;52256.50;5038098;28;19981;-66
2021/10/12 09:27:16;;;;;;;;;;;;;;;-144.99;49.92;52223.88;5046667;28;19996;-66
2021/10/12 09:29:47;;;;;;;;;;;;;;;-144.99;49.62;52236.13;5047274;28;20039;-66
2021/10/12 09:32:13;;;;;;;;;;;;;;;-144.99;48.58;52211.66;5043600;28;20440;-66
2021/10/12 09:34:42;;;;;;;;;;;;;;;-144.99;47.77;52189.25;5029790;28;19978;-66
2021/10/12 09:37:09;;;;;;;;;;;;;;;-144.99;46.24;52183.13;5027053;28;20467;-66
2021/10/12 09:39:37;;;;;;;;;;;;;;;-144.99;45.21;52166.81;5027218;28;19985;-67
2021/10/12 09:42:04;;;;;;;;;;;;;;;-144.99;45.13;52170.91;5026779;28;20469;-66
2021/10/12 09:44:31;;;;;;;;;;;;;;;-144.99;44.03;52179.06;5038495;28;19987;-67
2021/10/12 09:47:05;;;;;;;;;;;;;;;-144.99;43.17;52195.34;5046906;28;19992;-66
2021/10/12 09:49:32;;;;;;;;;;;;;;;-144.99;42.40;52187.19;5047000;28;20282;-67
2021/10/12 09:52:04;;;;;;;;;;;;;;;-144.99;42.71;52227.97;5043181;28;20092;-67
2021/10/12 09:54:31;;;;;;;;;;;;;;;-144.99;43.15;52195.34;5034315;28;20087;-67
2021/10/12 09:56:58;;;;;;;;;;;;;;;-144.99;43.60;52187.19;5026403;28;20004;-67
2021/10/12 09:59:25;;;;;;;;;;;;;;;-144.99;43.39;52227.97;5026190;28;19986;-67
2021/10/12 10:01:52;;;;;;;;;;;;;;;-144.99;43.97;52215.75;5036925;28;20001;-67
2021/10/12 10:04:19;;;;;;;;;;;;;;;-144.99;44.15;52219.81;5040219;28;19988;-67
2021/10/12 10:06:47;;;;;;;;;;;;;;;-144.99;43.78;52193.31;5046392;28;19988;-66
2021/10/12 10:09:15;;;;;;;;;;;;;;;-144.99;43.18;52174.97;5046540;28;19989;-66
2021/10/12 10:11:43;;;;;;;;;;;;;;;-144.99;41.74;52109.75;5042498;28;19997;-67
2021/10/12 10:14:10;;;;;;;;;;;;;;;-144.99;40.55;52085.31;5045438;28;20031;-66
2021/10/12 10:16:37;;;;;;;;;;;;;;;-144.99;39.23;52158.66;5040002;28;19977;-67
2021/10/12 10:19:05;;;;;;;;;;;;;;;-144.99;38.99;52060.84;5038100;28;20120;-66
2021/10/12 10:21:36;;;;;;;;;;;;;;;-144.99;38.75;52009.91;5045669;28;20001;-67
2021/10/12 10:24:08;;;;;;;;;;;;;;;-144.99;38.50;52020.09;5040785;28;20446;-67
2021/10/12 10:26:37;;;;;;;;;;;;;;;-144.99;38.63;52036.38;5037484;28;20071;-67
2021/10/12 10:29:37;;;;;;;;;;;;;;;-144.99;38.18;52132.19;5045276;28;19981;-67
2021/10/12 10:32:12;;;;;;;;;;;;;;;-144.99;38.92;52028.22;5035006;28;20001;-67
2021/10/12 10:34:40;;;;;;;;;;;;;;;-144.99;38.13;52007.84;5043217;28;19981;-67
2021/10/12 10:37:22;;;;;;;;;;;;;;;-144.99;36.81;52016.00;5026504;28;19985;-66
2021/10/12 10:39:50;;;;;;;;;;;;;;;-144.99;36.63;51995.63;5048225;28;20452;-67
2021/10/12 10:42:31;;;;;;;;;;;;;;;-144.99;36.06;51946.72;5050108;28;20001;-67
2021/10/12 10:45:00;;;;;;;;;;;;;;;-144.99;35.63;51938.56;5047202;28;20555;-67
2021/10/12 10:47:46;;;;;;;;;;;;;;;-144.99;34.96;51965.06;5045455;28;19983;-67
2021/10/12 10:50:13;;;;;;;;;;;;;;;-144.99;34.35;51958.94;5048886;28;20418;-67
2021/10/12 10:52:43;;;;;;;;;;;;;;;-144.99;33.61;51989.50;5050077;28;20028;-67
2021/10/12 10:55:10;;;;;;;;;;;;;;;-144.99;33.55;51926.34;5049826;28;19985;-67
2021/10/12 10:57:37;;;;;;;;;;;;;;;-144.99;33.40;52105.69;5049760;28;19981;-66
2021/10/12 11:00:34;;;;;;;;;;;;;;;-144.99;33.49;52024.16;5050501;28;20036;-67
2021/10/12 11:03:01;;;;;;;;;;;;;;;-144.99;34.87;52207.59;5041837;28;20489;-65
2021/10/12 11:05:34;;;;;;;;;;;;;;;-144.99;36.32;52244.28;5042227;28;19988;-67
2021/10/12 11:08:13;;;;;;;;;;;;;;;-144.99;37.60;52260.56;5030533;28;19997;-66
2021/10/12 11:10:39;;;;;;;;;;;;;;;-144.99;38.55;52101.59;5034772;28;19973;-66
2021/10/12 11:13:06;;;;;;;;;;;;;;;-144.99;36.97;52101.59;5048962;28;20008;-65
2021/10/12 11:15:46;;;;;;;;;;;;;;;-144.99;36.17;52026.19;5049433;28;19989;-66
2021/10/12 11:18:13;;;;;;;;;;;;;;;-144.99;35.47;52016.00;5049416;28;19984;-66
2021/10/12 11:20:41;;;;;;;;;;;;;;;-144.99;34.83;52085.31;5048874;28;20460;-66
2021/10/12 11:23:08;;;;;;;;;;;;;;;-144.99;34.61;51983.41;5039994;28;20000;-66
2021/10/12 11:25:34;;;;;;;;;;;;;;;-144.99;33.99;52121.97;5043219;28;20007;-65
2021/10/12 11:28:08;;;;;;;;;;;;;;;-144.99;34.06;52174.97;5049136;28;19989;-65
2021/10/12 11:30:34;;;;;;;;;;;;;;;-144.99;34.96;52227.97;5033320;28;20411;-65
2021/10/12 11:33:01;;;;;;;;;;;;;;;-144.99;36.15;52285.03;5028736;28;20551;-65
2021/10/12 11:35:33;;;;;;;;;;;;;;;-144.99;37.43;52256.50;5041912;28;20442;-65
2021/10/12 11:38:00;;;;;;;;;;;;;;;-144.99;38.49;52240.19;5048701;28;19984;-66
2021/10/12 11:40:26;;;;;;;;;;;;;;;-144.99;38.89;52299.31;5049378;28;19985;-65
2021/10/12 11:42:54;;;;;;;;;;;;;;;-144.99;39.40;52299.31;5048590;28;20278;-64
2021/10/12 11:45:20;;;;;;;;;;;;;;;-144.99;39.31;52232.03;5048611;28;20025;-66
2021/10/12 11:47:47;;;;;;;;;;;;;;;-144.99;39.30;52258.53;5048772;28;19992;-66
2021/10/12 11:50:13;;;;;;;;;;;;;;;-144.99;39.44;52297.25;5047100;28;19985;-66
2021/10/12 11:52:42;;;;;;;;;;;;;;;-144.99;39.72;52238.16;5036847;28;20001;-67
2021/10/12 11:55:09;;;;;;;;;;;;;;;-144.99;38.87;52095.50;5036362;28;20334;-66
2021/10/12 11:57:36;;;;;;;;;;;;;;;-144.99;37.26;52048.63;5028584;28;19981;-66
2021/10/12 12:00:03;;;;;;;;;;;;;;;-144.99;35.62;52179.06;5029112;28;20438;-67
2021/10/12 12:02:29;;;;;;;;;;;;;;;-144.99;35.41;52179.06;5039203;28;19993;-65
2021/10/12 12:04:58;;;;;;;;;;;;;;;-144.99;34.99;52207.59;5047661;28;20095;-67
2021/10/12 12:07:24;;;;;;;;;;;;;;;-144.99;36.00;52191.28;5048066;28;19964;-66
2021/10/12 12:09:52;;;;;;;;;;;;;;;-144.99;37.07;52252.44;5048819;28;19981;-65
2021/10/12 12:12:19;;;;;;;;;;;;;;;-144.99;37.95;52289.13;5029836;28;20016;-66
2021/10/12 12:14:49;;;;;;;;;;;;;;;-144.99;38.51;52268.72;5029548;28;20401;-65
2021/10/12 12:17:17;;;;;;;;;;;;;;;-144.99;39.33;52338.03;5029396;28;19981;-65
2021/10/12 12:19:44;;;;;;;;;;;;;;;-144.99;39.54;52325.81;5046652;28;19981;-65
2021/10/12 12:22:15;;;;;;;;;;;;;;;-144.99;39.48;52221.84;5047755;28;20480;-66